Terminal Aerodrome Forecast
Issued by NWS Boston, MA

Home | Current Version | Previous Version | Text Only | Print | Product List | Glossary On
Versions: 1 2 3 4 5 6 7 8 9 10 11 12 13 14 15 16 17 18 19 20 21 22 23 24 25 26 27 28 29 30 31 32 33 34 35 36 37 38 39
000
FTUS41 KBOX 011125
TAFBOS
TAF
KBOS 011125Z 0112/0218 02012KT P6SM OVC008
     FM011300 03012KT 4SM -SHRA BR OVC008
     FM020100 03012KT 2SM -SHRA BR OVC008
     FM020600 03013KT 4SM BR OVC008
     FM021500 04013KT P6SM OVC015=

USA.gov is the U.S. government's official web portal to all federal, state and local government web resources and services.